Minneapolis, Minnesota
Traffic Map
Current Weather Conditions
Minneapolis, Minnesota
Broken Clouds
Broken Clouds
-15°
Feels Like: -22°
Wind Chill: -22° Ceiling: 17000
Heat Index: -15° Visibility: 10mi
Dew Point: -20° Wind: 7mph
Humidity: 66% Direction: 360° (N)
Pressure: 30.12in Gusts: 0mph
Raw Report DataKMSP 101053Z 36006KT 10SM BKN170 M15/M20 A3012 RMK AO2 SLP218 T11501200
Traffic Incident Summary
Active as of:
Severity:
Category:
InformationThere was an issue retrieving the traffic information for this location. Please try a different location or try again shortly.
Advertisements
Track Severe Weather on mobile